LELN/LEN METAR and TAF weather

Enter ICAO airport designator
Station Type Date Time Source
LELN METAR 2019/04/25 02:00 UTC NOAA

LELN 250200Z AUTO 18005KT 8000 -RA SCT013 BKN036 BKN044 03/03 Q1002


Station Type Date Time Source
LELN Decoded METAR 2019/04/25 02:00 UTC NOAA

Leon / Virgen Del Camino, Spain (LELN) 42-35N 005-39W 914M
Apr 24, 2019 - 10:00 PM EDT / 2019.04.25 0200 UTC
Wind: from the S (180 degrees) at 6 MPH (5 KT):0
Visibility: 4 mile(s):0
Sky conditions: mostly cloudy
Weather: light rain
Temperature: 37 F (3 C)
Dew Point: 37 F (3 C)
Relative Humidity: 100%
Pressure (altimeter): 29.59 in. Hg (1002 hPa)
ob: LELN 250200Z AUTO 18005KT 8000 -RA SCT013 BKN036 BKN044 03/03 Q1002
cycle: 2

Station Type Date Time Source
LELN TAF 2018/03/28 12:27 UTC NOAA

TAF LELN 281100Z 2812/2824 27015KT CAVOK
TEMPO 2814/2821 27015G26KT
BECMG 2822/2824 31010KT PROB40
TEMPO 2815/2824 RA BKN030

Example: see airport list